sensor_id;sensor_type;location;lat;lon;timestamp;P1;durP1;ratioP1;P2;durP2;ratioP2
25988;SDS011;13778;48.236;9.894;2023-02-08T00:00:51;25.95;;;10.98;;
25988;SDS011;13778;48.236;9.894;2023-02-08T00:03:41;22.23;;;11.57;;
25988;SDS011;13778;48.236;9.894;2023-02-08T00:06:32;18.85;;;11.52;;
25988;SDS011;13778;48.236;9.894;2023-02-08T00:09:22;15.50;;;8.87;;
25988;SDS011;13778;48.236;9.894;2023-02-08T00:12:14;20.80;;;11.83;;
25988;SDS011;13778;48.236;9.894;2023-02-08T00:15:05;22.77;;;11.52;;
25988;SDS011;13778;48.236;9.894;2023-02-08T00:17:56;26.70;;;12.80;;
25988;SDS011;13778;48.236;9.894;2023-02-08T00:20:46;21.25;;;10.00;;
25988;SDS011;13778;48.236;9.894;2023-02-08T00:23:37;16.17;;;8.77;;
25988;SDS011;13778;48.236;9.894;2023-02-08T00:26:27;17.67;;;10.27;;
25988;SDS011;13778;48.236;9.894;2023-02-08T00:29:19;22.83;;;11.13;;
25988;SDS011;13778;48.236;9.894;2023-02-08T00:32:09;19.23;;;10.70;;
25988;SDS011;13778;48.236;9.894;2023-02-08T00:35:00;19.58;;;10.95;;
25988;SDS011;13778;48.236;9.894;2023-02-08T00:37:50;19.92;;;10.15;;
25988;SDS011;13778;48.236;9.894;2023-02-08T00:40:41;20.85;;;10.25;;
25988;SDS011;13778;48.236;9.894;2023-02-08T00:43:31;21.97;;;10.47;;
25988;SDS011;13778;48.236;9.894;2023-02-08T00:46:24;17.38;;;10.45;;
25988;SDS011;13778;48.236;9.894;2023-02-08T00:49:14;19.73;;;10.40;;
25988;SDS011;13778;48.236;9.894;2023-02-08T00:52:05;19.27;;;10.40;;
25988;SDS011;13778;48.236;9.894;2023-02-08T00:54:55;18.73;;;10.65;;
25988;SDS011;13778;48.236;9.894;2023-02-08T00:57:46;21.95;;;10.73;;
25988;SDS011;13778;48.236;9.894;2023-02-08T01:00:36;16.88;;;9.68;;
25988;SDS011;13778;48.236;9.894;2023-02-08T01:03:28;22.73;;;11.30;;
25988;SDS011;13778;48.236;9.894;2023-02-08T01:06:19;18.83;;;9.85;;
25988;SDS011;13778;48.236;9.894;2023-02-08T01:09:09;20.23;;;10.90;;
25988;SDS011;13778;48.236;9.894;2023-02-08T01:12:00;17.50;;;9.20;;
25988;SDS011;13778;48.236;9.894;2023-02-08T01:14:50;22.80;;;10.60;;
25988;SDS011;13778;48.236;9.894;2023-02-08T01:17:41;19.63;;;9.60;;
25988;SDS011;13778;48.236;9.894;2023-02-08T01:20:34;21.80;;;10.73;;
25988;SDS011;13778;48.236;9.894;2023-02-08T01:23:25;18.00;;;10.05;;
25988;SDS011;13778;48.236;9.894;2023-02-08T01:26:16;18.97;;;9.93;;
25988;SDS011;13778;48.236;9.894;2023-02-08T01:29:06;19.63;;;10.45;;
25988;SDS011;13778;48.236;9.894;2023-02-08T01:31:57;17.93;;;9.57;;
25988;SDS011;13778;48.236;9.894;2023-02-08T01:34:47;22.70;;;11.17;;
25988;SDS011;13778;48.236;9.894;2023-02-08T01:37:39;17.38;;;10.73;;
25988;SDS011;13778;48.236;9.894;2023-02-08T01:40:30;22.10;;;10.02;;
25988;SDS011;13778;48.236;9.894;2023-02-08T01:43:22;23.80;;;10.07;;
25988;SDS011;13778;48.236;9.894;2023-02-08T01:46:13;18.63;;;10.35;;
25988;SDS011;13778;48.236;9.894;2023-02-08T01:49:05;15.43;;;7.43;;
25988;SDS011;13778;48.236;9.894;2023-02-08T01:51:58;22.02;;;10.38;;
25988;SDS011;13778;48.236;9.894;2023-02-08T01:54:52;22.95;;;10.50;;
25988;SDS011;13778;48.236;9.894;2023-02-08T01:57:44;22.05;;;11.00;;
25988;SDS011;13778;48.236;9.894;2023-02-08T02:00:34;20.75;;;9.77;;
25988;SDS011;13778;48.236;9.894;2023-02-08T02:03:25;20.50;;;9.98;;
25988;SDS011;13778;48.236;9.894;2023-02-08T02:06:17;20.73;;;10.75;;
25988;SDS011;13778;48.236;9.894;2023-02-08T02:11:59;21.02;;;11.13;;
25988;SDS011;13778;48.236;9.894;2023-02-08T02:14:49;21.42;;;11.23;;
25988;SDS011;13778;48.236;9.894;2023-02-08T02:17:40;15.23;;;8.00;;
25988;SDS011;13778;48.236;9.894;2023-02-08T02:20:35;21.88;;;10.75;;
25988;SDS011;13778;48.236;9.894;2023-02-08T02:23:46;19.10;;;11.00;;
25988;SDS011;13778;48.236;9.894;2023-02-08T02:26:46;21.83;;;10.80;;
25988;SDS011;13778;48.236;9.894;2023-02-08T02:32:49;21.55;;;10.85;;
25988;SDS011;13778;48.236;9.894;2023-02-08T02:35:42;23.25;;;11.15;;
25988;SDS011;13778;48.236;9.894;2023-02-08T02:38:39;21.05;;;10.40;;
25988;SDS011;13778;48.236;9.894;2023-02-08T02:41:32;23.20;;;11.25;;
25988;SDS011;13778;48.236;9.894;2023-02-08T02:44:44;22.27;;;10.82;;
25988;SDS011;13778;48.236;9.894;2023-02-08T02:47:37;21.17;;;9.93;;
25988;SDS011;13778;48.236;9.894;2023-02-08T02:50:31;25.02;;;11.35;;
25988;SDS011;13778;48.236;9.894;2023-02-08T02:53:23;23.33;;;12.15;;
25988;SDS011;13778;48.236;9.894;2023-02-08T02:56:18;22.77;;;11.75;;
25988;SDS011;13778;48.236;9.894;2023-02-08T02:59:11;23.67;;;12.13;;
25988;SDS011;13778;48.236;9.894;2023-02-08T03:02:03;24.23;;;12.32;;
25988;SDS011;13778;48.236;9.894;2023-02-08T03:04:54;20.85;;;11.68;;
25988;SDS011;13778;48.236;9.894;2023-02-08T03:10:55;30.40;;;12.07;;
25988;SDS011;13778;48.236;9.894;2023-02-08T03:14:02;24.75;;;12.57;;
25988;SDS011;13778;48.236;9.894;2023-02-08T03:16:57;22.85;;;12.27;;
25988;SDS011;13778;48.236;9.894;2023-02-08T03:19:52;21.73;;;12.35;;
25988;SDS011;13778;48.236;9.894;2023-02-08T03:22:48;21.52;;;11.88;;
25988;SDS011;13778;48.236;9.894;2023-02-08T03:25:43;24.17;;;12.80;;
25988;SDS011;13778;48.236;9.894;2023-02-08T03:28:39;24.80;;;12.45;;
25988;SDS011;13778;48.236;9.894;2023-02-08T03:31:37;25.08;;;14.00;;
25988;SDS011;13778;48.236;9.894;2023-02-08T03:34:30;22.73;;;11.95;;
25988;SDS011;13778;48.236;9.894;2023-02-08T03:37:23;24.80;;;12.98;;
25988;SDS011;13778;48.236;9.894;2023-02-08T03:40:16;29.83;;;13.35;;
25988;SDS011;13778;48.236;9.894;2023-02-08T03:43:11;24.77;;;12.95;;
25988;SDS011;13778;48.236;9.894;2023-02-08T03:46:05;22.40;;;11.50;;
25988;SDS011;13778;48.236;9.894;2023-02-08T03:48:59;27.20;;;12.20;;
25988;SDS011;13778;48.236;9.894;2023-02-08T03:51:51;24.52;;;12.77;;
25988;SDS011;13778;48.236;9.894;2023-02-08T03:54:43;28.35;;;12.73;;
25988;SDS011;13778;48.236;9.894;2023-02-08T03:57:37;23.90;;;12.63;;
25988;SDS011;13778;48.236;9.894;2023-02-08T04:00:30;25.05;;;12.40;;
25988;SDS011;13778;48.236;9.894;2023-02-08T04:03:23;27.02;;;13.13;;
25988;SDS011;13778;48.236;9.894;2023-02-08T04:06:14;25.23;;;13.52;;
25988;SDS011;13778;48.236;9.894;2023-02-08T04:09:05;26.37;;;13.23;;
25988;SDS011;13778;48.236;9.894;2023-02-08T04:11:55;23.17;;;12.70;;
25988;SDS011;13778;48.236;9.894;2023-02-08T04:14:46;27.73;;;14.47;;
25988;SDS011;13778;48.236;9.894;2023-02-08T04:17:36;30.27;;;13.40;;
25988;SDS011;13778;48.236;9.894;2023-02-08T04:20:28;29.17;;;14.13;;
25988;SDS011;13778;48.236;9.894;2023-02-08T04:23:18;29.60;;;14.80;;
25988;SDS011;13778;48.236;9.894;2023-02-08T04:26:09;27.08;;;12.88;;
25988;SDS011;13778;48.236;9.894;2023-02-08T04:29:00;23.70;;;13.32;;
25988;SDS011;13778;48.236;9.894;2023-02-08T04:31:50;21.33;;;12.50;;
25988;SDS011;13778;48.236;9.894;2023-02-08T04:34:41;30.50;;;14.97;;
25988;SDS011;13778;48.236;9.894;2023-02-08T04:37:33;34.20;;;16.43;;
25988;SDS011;13778;48.236;9.894;2023-02-08T04:40:23;30.45;;;14.50;;
25988;SDS011;13778;48.236;9.894;2023-02-08T04:43:13;32.08;;;15.95;;
25988;SDS011;13778;48.236;9.894;2023-02-08T04:46:04;30.48;;;16.02;;
25988;SDS011;13778;48.236;9.894;2023-02-08T04:48:55;34.23;;;16.57;;
25988;SDS011;13778;48.236;9.894;2023-02-08T04:51:45;38.60;;;16.27;;
25988;SDS011;13778;48.236;9.894;2023-02-08T04:54:37;31.58;;;16.45;;
25988;SDS011;13778;48.236;9.894;2023-02-08T04:57:27;29.70;;;15.10;;
25988;SDS011;13778;48.236;9.894;2023-02-08T05:00:18;34.33;;;18.30;;
25988;SDS011;13778;48.236;9.894;2023-02-08T05:03:08;31.17;;;16.30;;
25988;SDS011;13778;48.236;9.894;2023-02-08T05:05:59;30.47;;;15.37;;
25988;SDS011;13778;48.236;9.894;2023-02-08T05:08:50;28.20;;;15.95;;
25988;SDS011;13778;48.236;9.894;2023-02-08T05:11:42;37.00;;;17.85;;
25988;SDS011;13778;48.236;9.894;2023-02-08T05:14:32;30.70;;;16.42;;
25988;SDS011;13778;48.236;9.894;2023-02-08T05:17:23;32.38;;;18.00;;
25988;SDS011;13778;48.236;9.894;2023-02-08T05:20:13;32.60;;;17.75;;
25988;SDS011;13778;48.236;9.894;2023-02-08T05:23:04;44.40;;;19.58;;
25988;SDS011;13778;48.236;9.894;2023-02-08T05:25:54;34.08;;;18.15;;
25988;SDS011;13778;48.236;9.894;2023-02-08T05:28:46;32.03;;;17.50;;
25988;SDS011;13778;48.236;9.894;2023-02-08T05:31:36;37.22;;;19.00;;
25988;SDS011;13778;48.236;9.894;2023-02-08T05:34:27;39.78;;;18.38;;
25988;SDS011;13778;48.236;9.894;2023-02-08T05:37:17;33.10;;;17.60;;
25988;SDS011;13778;48.236;9.894;2023-02-08T05:40:08;41.20;;;20.40;;
25988;SDS011;13778;48.236;9.894;2023-02-08T05:43:01;38.38;;;18.40;;
25988;SDS011;13778;48.236;9.894;2023-02-08T05:45:53;38.80;;;20.27;;
25988;SDS011;13778;48.236;9.894;2023-02-08T05:48:43;40.92;;;19.20;;
25988;SDS011;13778;48.236;9.894;2023-02-08T05:51:34;36.03;;;19.92;;
25988;SDS011;13778;48.236;9.894;2023-02-08T05:54:24;36.88;;;18.35;;
25988;SDS011;13778;48.236;9.894;2023-02-08T05:57:15;43.10;;;19.60;;
25988;SDS011;13778;48.236;9.894;2023-02-08T06:00:06;35.92;;;18.95;;
25988;SDS011;13778;48.236;9.894;2023-02-08T06:02:58;40.00;;;18.98;;
25988;SDS011;13778;48.236;9.894;2023-02-08T06:05:48;43.72;;;21.60;;
25988;SDS011;13778;48.236;9.894;2023-02-08T06:08:39;37.65;;;17.48;;
25988;SDS011;13778;48.236;9.894;2023-02-08T06:11:29;36.07;;;19.43;;
25988;SDS011;13778;48.236;9.894;2023-02-08T06:14:19;40.83;;;20.37;;
25988;SDS011;13778;48.236;9.894;2023-02-08T06:17:10;38.80;;;18.70;;
25988;SDS011;13778;48.236;9.894;2023-02-08T06:20:02;40.22;;;19.80;;
25988;SDS011;13778;48.236;9.894;2023-02-08T06:22:53;30.63;;;16.30;;
25988;SDS011;13778;48.236;9.894;2023-02-08T06:25:44;38.55;;;19.70;;
25988;SDS011;13778;48.236;9.894;2023-02-08T06:28:35;38.85;;;19.25;;
25988;SDS011;13778;48.236;9.894;2023-02-08T06:31:25;36.20;;;17.97;;
25988;SDS011;13778;48.236;9.894;2023-02-08T06:34:16;27.70;;;13.98;;
25988;SDS011;13778;48.236;9.894;2023-02-08T06:37:08;45.05;;;18.63;;
25988;SDS011;13778;48.236;9.894;2023-02-08T06:39:58;44.17;;;17.88;;
25988;SDS011;13778;48.236;9.894;2023-02-08T06:42:50;35.40;;;18.58;;
25988;SDS011;13778;48.236;9.894;2023-02-08T06:45:40;36.83;;;19.10;;
25988;SDS011;13778;48.236;9.894;2023-02-08T06:48:33;37.50;;;18.70;;
25988;SDS011;13778;48.236;9.894;2023-02-08T06:51:23;34.28;;;16.45;;
25988;SDS011;13778;48.236;9.894;2023-02-08T06:54:15;37.37;;;17.50;;
25988;SDS011;13778;48.236;9.894;2023-02-08T06:57:06;38.83;;;18.52;;
25988;SDS011;13778;48.236;9.894;2023-02-08T06:59:56;38.60;;;19.27;;
25988;SDS011;13778;48.236;9.894;2023-02-08T07:02:47;36.97;;;15.30;;
25988;SDS011;13778;48.236;9.894;2023-02-08T07:05:37;45.10;;;20.17;;
25988;SDS011;13778;48.236;9.894;2023-02-08T07:08:28;49.67;;;22.30;;
25988;SDS011;13778;48.236;9.894;2023-02-08T07:11:20;37.33;;;18.80;;
25988;SDS011;13778;48.236;9.894;2023-02-08T07:14:10;44.58;;;20.63;;
25988;SDS011;13778;48.236;9.894;2023-02-08T07:17:01;40.95;;;20.58;;
25988;SDS011;13778;48.236;9.894;2023-02-08T07:19:52;47.13;;;23.03;;
25988;SDS011;13778;48.236;9.894;2023-02-08T07:22:42;46.77;;;20.13;;
25988;SDS011;13778;48.236;9.894;2023-02-08T07:25:33;49.47;;;21.67;;
25988;SDS011;13778;48.236;9.894;2023-02-08T07:28:25;45.17;;;21.33;;
25988;SDS011;13778;48.236;9.894;2023-02-08T07:31:15;42.20;;;20.38;;
25988;SDS011;13778;48.236;9.894;2023-02-08T07:34:06;40.63;;;20.25;;
25988;SDS011;13778;48.236;9.894;2023-02-08T07:36:57;43.97;;;19.20;;
25988;SDS011;13778;48.236;9.894;2023-02-08T07:39:47;46.40;;;20.45;;
25988;SDS011;13778;48.236;9.894;2023-02-08T07:42:37;44.15;;;20.25;;
25988;SDS011;13778;48.236;9.894;2023-02-08T07:45:29;37.97;;;19.33;;
25988;SDS011;13778;48.236;9.894;2023-02-08T07:48:19;40.17;;;19.92;;
25988;SDS011;13778;48.236;9.894;2023-02-08T07:51:10;38.70;;;19.23;;
25988;SDS011;13778;48.236;9.894;2023-02-08T07:54:01;37.40;;;19.35;;
25988;SDS011;13778;48.236;9.894;2023-02-08T07:56:51;39.67;;;19.73;;
25988;SDS011;13778;48.236;9.894;2023-02-08T07:59:42;39.13;;;18.25;;
25988;SDS011;13778;48.236;9.894;2023-02-08T08:02:34;34.22;;;17.05;;
25988;SDS011;13778;48.236;9.894;2023-02-08T08:05:24;50.58;;;22.15;;
25988;SDS011;13778;48.236;9.894;2023-02-08T08:08:15;41.90;;;19.20;;
25988;SDS011;13778;48.236;9.894;2023-02-08T08:11:05;41.50;;;21.38;;
25988;SDS011;13778;48.236;9.894;2023-02-08T08:13:56;41.00;;;20.47;;
25988;SDS011;13778;48.236;9.894;2023-02-08T08:16:46;40.08;;;18.75;;
25988;SDS011;13778;48.236;9.894;2023-02-08T08:19:38;46.33;;;20.80;;
25988;SDS011;13778;48.236;9.894;2023-02-08T08:22:28;41.92;;;20.38;;
25988;SDS011;13778;48.236;9.894;2023-02-08T08:25:19;45.55;;;21.35;;
25988;SDS011;13778;48.236;9.894;2023-02-08T08:28:09;43.23;;;20.73;;
25988;SDS011;13778;48.236;9.894;2023-02-08T08:31:00;44.35;;;20.98;;
25988;SDS011;13778;48.236;9.894;2023-02-08T08:33:51;39.50;;;17.67;;
25988;SDS011;13778;48.236;9.894;2023-02-08T08:36:42;39.67;;;18.67;;
25988;SDS011;13778;48.236;9.894;2023-02-08T08:39:33;41.38;;;20.10;;
25988;SDS011;13778;48.236;9.894;2023-02-08T08:42:25;49.10;;;21.70;;
25988;SDS011;13778;48.236;9.894;2023-02-08T08:45:15;41.67;;;20.97;;
25988;SDS011;13778;48.236;9.894;2023-02-08T08:48:06;43.30;;;20.70;;
25988;SDS011;13778;48.236;9.894;2023-02-08T08:50:56;42.78;;;22.33;;
25988;SDS011;13778;48.236;9.894;2023-02-08T08:53:48;40.63;;;21.10;;
25988;SDS011;13778;48.236;9.894;2023-02-08T08:56:39;53.83;;;22.95;;
25988;SDS011;13778;48.236;9.894;2023-02-08T08:59:29;37.78;;;20.02;;
25988;SDS011;13778;48.236;9.894;2023-02-08T09:02:20;45.93;;;22.77;;
25988;SDS011;13778;48.236;9.894;2023-02-08T09:05:10;43.05;;;20.63;;
25988;SDS011;13778;48.236;9.894;2023-02-08T09:08:01;42.78;;;22.45;;
25988;SDS011;13778;48.236;9.894;2023-02-08T09:10:53;45.47;;;21.57;;
25988;SDS011;13778;48.236;9.894;2023-02-08T09:13:43;45.70;;;20.40;;
25988;SDS011;13778;48.236;9.894;2023-02-08T09:16:33;42.40;;;20.98;;
25988;SDS011;13778;48.236;9.894;2023-02-08T09:19:24;38.77;;;18.90;;
25988;SDS011;13778;48.236;9.894;2023-02-08T09:22:16;35.17;;;19.52;;
25988;SDS011;13778;48.236;9.894;2023-02-08T09:25:07;31.17;;;16.40;;
25988;SDS011;13778;48.236;9.894;2023-02-08T09:27:59;36.03;;;18.85;;
25988;SDS011;13778;48.236;9.894;2023-02-08T09:30:49;39.88;;;18.77;;
25988;SDS011;13778;48.236;9.894;2023-02-08T09:33:40;40.30;;;21.03;;
25988;SDS011;13778;48.236;9.894;2023-02-08T09:36:31;44.17;;;20.77;;
25988;SDS011;13778;48.236;9.894;2023-02-08T09:39:22;34.75;;;18.00;;
25988;SDS011;13778;48.236;9.894;2023-02-08T09:42:14;38.05;;;19.85;;
25988;SDS011;13778;48.236;9.894;2023-02-08T09:45:23;42.65;;;19.88;;
25988;SDS011;13778;48.236;9.894;2023-02-08T09:48:15;42.28;;;19.77;;
25988;SDS011;13778;48.236;9.894;2023-02-08T09:51:08;37.53;;;20.50;;
25988;SDS011;13778;48.236;9.894;2023-02-08T09:54:01;35.42;;;18.98;;
25988;SDS011;13778;48.236;9.894;2023-02-08T09:56:52;41.72;;;20.50;;
25988;SDS011;13778;48.236;9.894;2023-02-08T09:59:45;41.22;;;21.65;;
25988;SDS011;13778;48.236;9.894;2023-02-08T10:02:38;36.58;;;18.58;;
25988;SDS011;13778;48.236;9.894;2023-02-08T10:05:31;42.75;;;19.67;;
25988;SDS011;13778;48.236;9.894;2023-02-08T10:08:23;45.80;;;19.45;;
25988;SDS011;13778;48.236;9.894;2023-02-08T10:11:26;38.63;;;20.80;;
25988;SDS011;13778;48.236;9.894;2023-02-08T10:14:27;39.83;;;20.08;;
25988;SDS011;13778;48.236;9.894;2023-02-08T10:17:31;41.75;;;22.15;;
25988;SDS011;13778;48.236;9.894;2023-02-08T10:20:29;40.95;;;20.48;;
25988;SDS011;13778;48.236;9.894;2023-02-08T10:23:29;41.63;;;18.45;;
25988;SDS011;13778;48.236;9.894;2023-02-08T10:26:23;38.78;;;20.05;;
25988;SDS011;13778;48.236;9.894;2023-02-08T10:29:26;33.33;;;18.88;;
25988;SDS011;13778;48.236;9.894;2023-02-08T10:32:25;41.20;;;20.98;;
25988;SDS011;13778;48.236;9.894;2023-02-08T10:35:22;39.63;;;20.98;;
25988;SDS011;13778;48.236;9.894;2023-02-08T10:38:22;38.03;;;20.60;;
25988;SDS011;13778;48.236;9.894;2023-02-08T10:41:14;38.67;;;20.05;;
25988;SDS011;13778;48.236;9.894;2023-02-08T10:44:10;34.45;;;19.77;;
25988;SDS011;13778;48.236;9.894;2023-02-08T10:47:08;35.97;;;19.23;;
25988;SDS011;13778;48.236;9.894;2023-02-08T10:50:01;36.60;;;19.02;;
25988;SDS011;13778;48.236;9.894;2023-02-08T10:55:44;34.35;;;17.70;;
25988;SDS011;13778;48.236;9.894;2023-02-08T10:58:34;41.58;;;20.63;;
25988;SDS011;13778;48.236;9.894;2023-02-08T11:01:26;34.95;;;17.45;;
25988;SDS011;13778;48.236;9.894;2023-02-08T11:04:17;29.30;;;18.02;;
25988;SDS011;13778;48.236;9.894;2023-02-08T11:07:17;34.72;;;17.88;;
25988;SDS011;13778;48.236;9.894;2023-02-08T11:10:19;37.35;;;17.42;;
25988;SDS011;13778;48.236;9.894;2023-02-08T11:13:16;34.40;;;17.65;;
25988;SDS011;13778;48.236;9.894;2023-02-08T11:16:08;34.10;;;17.73;;
25988;SDS011;13778;48.236;9.894;2023-02-08T11:19:00;30.83;;;17.08;;
25988;SDS011;13778;48.236;9.894;2023-02-08T11:21:51;31.80;;;16.35;;
25988;SDS011;13778;48.236;9.894;2023-02-08T11:24:42;27.98;;;15.75;;
25988;SDS011;13778;48.236;9.894;2023-02-08T11:27:38;33.45;;;17.02;;
25988;SDS011;13778;48.236;9.894;2023-02-08T11:30:34;36.10;;;17.80;;
25988;SDS011;13778;48.236;9.894;2023-02-08T11:33:24;27.15;;;15.15;;
25988;SDS011;13778;48.236;9.894;2023-02-08T11:36:15;29.92;;;15.68;;
25988;SDS011;13778;48.236;9.894;2023-02-08T11:39:14;31.08;;;16.42;;
25988;SDS011;13778;48.236;9.894;2023-02-08T11:42:05;33.38;;;15.55;;
25988;SDS011;13778;48.236;9.894;2023-02-08T11:44:56;28.75;;;15.23;;
25988;SDS011;13778;48.236;9.894;2023-02-08T11:47:49;25.98;;;15.88;;
25988;SDS011;13778;48.236;9.894;2023-02-08T11:50:40;30.25;;;15.48;;
25988;SDS011;13778;48.236;9.894;2023-02-08T11:53:31;28.02;;;15.20;;
25988;SDS011;13778;48.236;9.894;2023-02-08T11:56:25;32.85;;;15.63;;
25988;SDS011;13778;48.236;9.894;2023-02-08T11:59:17;28.73;;;15.95;;
25988;SDS011;13778;48.236;9.894;2023-02-08T12:02:25;29.92;;;15.40;;
25988;SDS011;13778;48.236;9.894;2023-02-08T12:05:20;37.58;;;16.73;;
25988;SDS011;13778;48.236;9.894;2023-02-08T12:08:14;36.53;;;18.73;;
25988;SDS011;13778;48.236;9.894;2023-02-08T12:11:11;31.80;;;16.77;;
25988;SDS011;13778;48.236;9.894;2023-02-08T12:14:11;38.63;;;16.58;;
25988;SDS011;13778;48.236;9.894;2023-02-08T12:17:10;31.63;;;17.23;;
25988;SDS011;13778;48.236;9.894;2023-02-08T12:23:33;31.63;;;16.50;;
25988;SDS011;13778;48.236;9.894;2023-02-08T12:26:37;31.63;;;17.00;;
25988;SDS011;13778;48.236;9.894;2023-02-08T12:29:37;29.48;;;16.05;;
25988;SDS011;13778;48.236;9.894;2023-02-08T12:32:33;23.63;;;14.10;;
25988;SDS011;13778;48.236;9.894;2023-02-08T12:35:37;25.52;;;14.80;;
25988;SDS011;13778;48.236;9.894;2023-02-08T12:38:42;25.30;;;14.57;;
25988;SDS011;13778;48.236;9.894;2023-02-08T12:42:10;26.95;;;14.32;;
25988;SDS011;13778;48.236;9.894;2023-02-08T12:45:13;26.05;;;14.90;;
25988;SDS011;13778;48.236;9.894;2023-02-08T12:48:14;28.00;;;15.70;;
25988;SDS011;13778;48.236;9.894;2023-02-08T12:51:10;30.55;;;15.98;;
25988;SDS011;13778;48.236;9.894;2023-02-08T12:54:08;35.72;;;18.60;;
25988;SDS011;13778;48.236;9.894;2023-02-08T12:56:59;38.08;;;19.25;;
25988;SDS011;13778;48.236;9.894;2023-02-08T12:59:52;39.88;;;19.83;;
25988;SDS011;13778;48.236;9.894;2023-02-08T13:02:45;38.78;;;19.05;;
25988;SDS011;13778;48.236;9.894;2023-02-08T13:05:43;28.83;;;15.88;;
25988;SDS011;13778;48.236;9.894;2023-02-08T13:08:38;25.50;;;15.77;;
25988;SDS011;13778;48.236;9.894;2023-02-08T13:11:33;28.90;;;14.20;;
25988;SDS011;13778;48.236;9.894;2023-02-08T13:14:27;27.50;;;14.25;;
25988;SDS011;13778;48.236;9.894;2023-02-08T13:17:21;29.45;;;15.75;;
25988;SDS011;13778;48.236;9.894;2023-02-08T13:20:17;29.98;;;15.38;;
25988;SDS011;13778;48.236;9.894;2023-02-08T13:23:11;30.10;;;15.30;;
25988;SDS011;13778;48.236;9.894;2023-02-08T13:26:05;27.98;;;14.57;;
25988;SDS011;13778;48.236;9.894;2023-02-08T13:28:58;29.75;;;14.55;;
25988;SDS011;13778;48.236;9.894;2023-02-08T13:31:50;27.48;;;14.73;;
25988;SDS011;13778;48.236;9.894;2023-02-08T13:34:43;25.25;;;15.52;;
25988;SDS011;13778;48.236;9.894;2023-02-08T13:37:34;30.40;;;15.65;;
25988;SDS011;13778;48.236;9.894;2023-02-08T13:40:25;20.27;;;11.45;;
25988;SDS011;13778;48.236;9.894;2023-02-08T13:43:19;24.58;;;13.98;;
25988;SDS011;13778;48.236;9.894;2023-02-08T13:46:14;27.95;;;14.77;;
25988;SDS011;13778;48.236;9.894;2023-02-08T13:49:06;25.50;;;13.57;;
25988;SDS011;13778;48.236;9.894;2023-02-08T13:51:56;28.23;;;13.55;;
25988;SDS011;13778;48.236;9.894;2023-02-08T13:54:48;24.88;;;13.43;;
25988;SDS011;13778;48.236;9.894;2023-02-08T13:57:59;27.57;;;13.60;;
25988;SDS011;13778;48.236;9.894;2023-02-08T14:00:59;27.75;;;12.65;;
25988;SDS011;13778;48.236;9.894;2023-02-08T14:07:01;27.33;;;14.05;;
25988;SDS011;13778;48.236;9.894;2023-02-08T14:09:59;23.33;;;13.50;;
25988;SDS011;13778;48.236;9.894;2023-02-08T14:12:53;26.40;;;14.40;;
25988;SDS011;13778;48.236;9.894;2023-02-08T14:15:45;33.47;;;17.00;;
25988;SDS011;13778;48.236;9.894;2023-02-08T14:18:36;34.33;;;18.33;;
25988;SDS011;13778;48.236;9.894;2023-02-08T14:21:29;30.58;;;16.45;;
25988;SDS011;13778;48.236;9.894;2023-02-08T14:24:22;34.17;;;18.73;;
25988;SDS011;13778;48.236;9.894;2023-02-08T14:27:17;36.92;;;19.58;;
25988;SDS011;13778;48.236;9.894;2023-02-08T14:30:19;35.67;;;19.15;;
25988;SDS011;13778;48.236;9.894;2023-02-08T14:33:11;33.42;;;17.63;;
25988;SDS011;13778;48.236;9.894;2023-02-08T14:36:05;34.00;;;19.00;;
25988;SDS011;13778;48.236;9.894;2023-02-08T14:39:04;35.58;;;19.63;;
25988;SDS011;13778;48.236;9.894;2023-02-08T14:41:57;31.25;;;18.10;;
25988;SDS011;13778;48.236;9.894;2023-02-08T14:45:00;38.63;;;19.45;;
25988;SDS011;13778;48.236;9.894;2023-02-08T14:47:51;31.00;;;18.05;;
25988;SDS011;13778;48.236;9.894;2023-02-08T14:53:48;34.65;;;18.58;;
25988;SDS011;13778;48.236;9.894;2023-02-08T14:56:43;35.65;;;19.80;;
25988;SDS011;13778;48.236;9.894;2023-02-08T14:59:37;40.78;;;20.58;;
25988;SDS011;13778;48.236;9.894;2023-02-08T15:02:28;29.13;;;15.90;;
25988;SDS011;13778;48.236;9.894;2023-02-08T15:08:09;29.58;;;16.27;;
25988;SDS011;13778;48.236;9.894;2023-02-08T15:11:00;30.60;;;18.55;;
25988;SDS011;13778;48.236;9.894;2023-02-08T15:13:52;36.65;;;18.90;;
25988;SDS011;13778;48.236;9.894;2023-02-08T15:16:43;31.67;;;17.60;;
25988;SDS011;13778;48.236;9.894;2023-02-08T15:19:35;36.25;;;17.75;;
25988;SDS011;13778;48.236;9.894;2023-02-08T15:22:29;33.50;;;17.92;;
25988;SDS011;13778;48.236;9.894;2023-02-08T15:25:22;33.35;;;19.17;;
25988;SDS011;13778;48.236;9.894;2023-02-08T15:28:16;32.88;;;16.25;;
25988;SDS011;13778;48.236;9.894;2023-02-08T15:31:08;31.70;;;16.67;;
25988;SDS011;13778;48.236;9.894;2023-02-08T15:34:01;34.85;;;17.52;;
25988;SDS011;13778;48.236;9.894;2023-02-08T15:36:52;30.42;;;17.67;;
25988;SDS011;13778;48.236;9.894;2023-02-08T15:39:42;33.90;;;17.63;;
25988;SDS011;13778;48.236;9.894;2023-02-08T15:42:33;32.50;;;17.70;;
25988;SDS011;13778;48.236;9.894;2023-02-08T15:45:24;34.30;;;17.30;;
25988;SDS011;13778;48.236;9.894;2023-02-08T15:48:18;28.17;;;16.40;;
25988;SDS011;13778;48.236;9.894;2023-02-08T15:51:10;34.88;;;22.13;;
25988;SDS011;13778;48.236;9.894;2023-02-08T15:54:02;34.20;;;18.40;;
25988;SDS011;13778;48.236;9.894;2023-02-08T15:56:54;37.33;;;15.90;;
25988;SDS011;13778;48.236;9.894;2023-02-08T15:59:45;31.73;;;15.77;;
25988;SDS011;13778;48.236;9.894;2023-02-08T16:02:36;29.65;;;16.73;;
25988;SDS011;13778;48.236;9.894;2023-02-08T16:05:27;35.42;;;18.63;;
25988;SDS011;13778;48.236;9.894;2023-02-08T16:08:21;32.17;;;16.35;;
25988;SDS011;13778;48.236;9.894;2023-02-08T16:11:12;34.47;;;16.45;;
25988;SDS011;13778;48.236;9.894;2023-02-08T16:14:03;31.73;;;16.63;;
25988;SDS011;13778;48.236;9.894;2023-02-08T16:19:49;32.45;;;15.93;;
25988;SDS011;13778;48.236;9.894;2023-02-08T16:22:39;36.45;;;17.17;;
25988;SDS011;13778;48.236;9.894;2023-02-08T16:25:33;32.45;;;16.52;;
25988;SDS011;13778;48.236;9.894;2023-02-08T16:28:25;29.58;;;17.27;;
25988;SDS011;13778;48.236;9.894;2023-02-08T16:31:18;30.30;;;16.60;;
25988;SDS011;13778;48.236;9.894;2023-02-08T16:34:12;32.83;;;17.52;;
25988;SDS011;13778;48.236;9.894;2023-02-08T16:37:04;33.08;;;17.95;;
25988;SDS011;13778;48.236;9.894;2023-02-08T16:39:55;29.85;;;15.48;;
25988;SDS011;13778;48.236;9.894;2023-02-08T16:42:47;32.50;;;17.90;;
25988;SDS011;13778;48.236;9.894;2023-02-08T16:48:28;33.10;;;15.95;;
25988;SDS011;13778;48.236;9.894;2023-02-08T16:51:22;31.95;;;16.63;;
25988;SDS011;13778;48.236;9.894;2023-02-08T16:54:14;36.35;;;16.60;;
25988;SDS011;13778;48.236;9.894;2023-02-08T16:57:06;32.88;;;16.92;;
25988;SDS011;13778;48.236;9.894;2023-02-08T16:59:58;37.17;;;18.23;;
25988;SDS011;13778;48.236;9.894;2023-02-08T17:02:49;38.75;;;18.83;;
25988;SDS011;13778;48.236;9.894;2023-02-08T17:05:40;31.35;;;15.77;;
25988;SDS011;13778;48.236;9.894;2023-02-08T17:08:31;34.05;;;16.05;;
25988;SDS011;13778;48.236;9.894;2023-02-08T17:11:24;30.27;;;17.48;;
25988;SDS011;13778;48.236;9.894;2023-02-08T17:14:14;34.15;;;17.15;;
25988;SDS011;13778;48.236;9.894;2023-02-08T17:17:06;33.90;;;17.20;;
25988;SDS011;13778;48.236;9.894;2023-02-08T17:19:56;32.53;;;17.10;;